sensor_id;sensor_type;location;lat;lon;timestamp;P1;durP1;ratioP1;P2;durP2;ratioP2
52642;SDS011;38531;53.296;6.614;2022-11-04T00:02:06;5.30;;;2.70;;
52642;SDS011;38531;53.296;6.614;2022-11-04T00:05:10;4.32;;;2.75;;
52642;SDS011;38531;53.296;6.614;2022-11-04T00:08:32;6.20;;;2.35;;
52642;SDS011;38531;53.296;6.614;2022-11-04T00:11:53;6.32;;;3.78;;
52642;SDS011;38531;53.296;6.614;2022-11-04T00:15:24;4.72;;;2.85;;
52642;SDS011;38531;53.296;6.614;2022-11-04T00:25:52;6.82;;;3.78;;
52642;SDS011;38531;53.296;6.614;2022-11-04T00:29:27;4.78;;;3.13;;
52642;SDS011;38531;53.296;6.614;2022-11-04T00:32:42;5.20;;;3.03;;
52642;SDS011;38531;53.296;6.614;2022-11-04T00:36:06;7.97;;;5.20;;
52642;SDS011;38531;53.296;6.614;2022-11-04T00:39:32;7.93;;;5.03;;
52642;SDS011;38531;53.296;6.614;2022-11-04T00:46:20;5.63;;;3.08;;
52642;SDS011;38531;53.296;6.614;2022-11-04T00:52:28;4.07;;;1.52;;
52642;SDS011;38531;53.296;6.614;2022-11-04T00:59:12;2.13;;;1.20;;
52642;SDS011;38531;53.296;6.614;2022-11-04T01:02:25;1.80;;;0.98;;
52642;SDS011;38531;53.296;6.614;2022-11-04T01:05:46;1.52;;;0.90;;
52642;SDS011;38531;53.296;6.614;2022-11-04T01:09:05;2.25;;;1.15;;
52642;SDS011;38531;53.296;6.614;2022-11-04T01:16:03;0.60;;;0.40;;
52642;SDS011;38531;53.296;6.614;2022-11-04T01:19:36;0.40;;;0.30;;
52642;SDS011;38531;53.296;6.614;2022-11-04T01:26:32;0.40;;;0.20;;
52642;SDS011;38531;53.296;6.614;2022-11-04T01:29:54;0.57;;;0.13;;
52642;SDS011;38531;53.296;6.614;2022-11-04T01:37:04;0.15;;;0.00;;
52642;SDS011;38531;53.296;6.614;2022-11-04T01:51:24;0.25;;;0.10;;
52642;SDS011;38531;53.296;6.614;2022-11-04T01:54:50;0.43;;;0.10;;
52642;SDS011;38531;53.296;6.614;2022-11-04T02:02:06;1.92;;;0.10;;
52642;SDS011;38531;53.296;6.614;2022-11-04T02:09:02;0.25;;;0.10;;
52642;SDS011;38531;53.296;6.614;2022-11-04T02:15:18;0.10;;;0.10;;
52642;SDS011;38531;53.296;6.614;2022-11-04T02:37:08;1.88;;;0.10;;
52642;SDS011;38531;53.296;6.614;2022-11-04T02:40:45;2.47;;;0.20;;
52642;SDS011;38531;53.296;6.614;2022-11-04T02:44:22;2.55;;;0.10;;
52642;SDS011;38531;53.296;6.614;2022-11-04T02:47:52;0.10;;;0.10;;
52642;SDS011;38531;53.296;6.614;2022-11-04T02:51:26;1.65;;;0.10;;
52642;SDS011;38531;53.296;6.614;2022-11-04T03:05:30;1.25;;;0.20;;
52642;SDS011;38531;53.296;6.614;2022-11-04T03:08:48;3.13;;;0.10;;
52642;SDS011;38531;53.296;6.614;2022-11-04T03:12:07;1.03;;;0.20;;
52642;SDS011;38531;53.296;6.614;2022-11-04T03:15:32;4.25;;;0.20;;
52642;SDS011;38531;53.296;6.614;2022-11-04T03:22:13;0.95;;;0.10;;
52642;SDS011;38531;53.296;6.614;2022-11-04T03:25:32;1.00;;;0.10;;
52642;SDS011;38531;53.296;6.614;2022-11-04T03:35:51;2.00;;;0.20;;
52642;SDS011;38531;53.296;6.614;2022-11-04T03:38:50;2.22;;;0.30;;
52642;SDS011;38531;53.296;6.614;2022-11-04T03:42:07;2.97;;;0.40;;
52642;SDS011;38531;53.296;6.614;2022-11-04T03:45:28;1.27;;;0.40;;
52642;SDS011;38531;53.296;6.614;2022-11-04T03:48:59;1.45;;;0.40;;
52642;SDS011;38531;53.296;6.614;2022-11-04T04:41:30;1.90;;;0.20;;
52642;SDS011;38531;53.296;6.614;2022-11-04T04:45:01;0.20;;;0.10;;
52642;SDS011;38531;53.296;6.614;2022-11-04T04:55:14;0.20;;;0.20;;
52642;SDS011;38531;53.296;6.614;2022-11-04T05:02:05;1.08;;;0.17;;
52642;SDS011;38531;53.296;6.614;2022-11-04T05:05:40;0.10;;;0.10;;
52642;SDS011;38531;53.296;6.614;2022-11-04T05:09:04;0.10;;;0.10;;
52642;SDS011;38531;53.296;6.614;2022-11-04T05:12:19;0.70;;;0.10;;
52642;SDS011;38531;53.296;6.614;2022-11-04T05:16:05;0.45;;;0.20;;
52642;SDS011;38531;53.296;6.614;2022-11-04T05:19:24;0.25;;;0.10;;
52642;SDS011;38531;53.296;6.614;2022-11-04T05:33:04;0.30;;;0.20;;
52642;SDS011;38531;53.296;6.614;2022-11-04T05:36:06;0.57;;;0.30;;
52642;SDS011;38531;53.296;6.614;2022-11-04T05:43:08;0.20;;;0.10;;
52642;SDS011;38531;53.296;6.614;2022-11-04T05:46:15;0.85;;;0.10;;
52642;SDS011;38531;53.296;6.614;2022-11-04T05:53:36;0.98;;;0.15;;
52642;SDS011;38531;53.296;6.614;2022-11-04T05:57:02;0.10;;;0.10;;
52642;SDS011;38531;53.296;6.614;2022-11-04T06:00:34;0.28;;;0.13;;
52642;SDS011;38531;53.296;6.614;2022-11-04T06:04:04;1.60;;;0.20;;
52642;SDS011;38531;53.296;6.614;2022-11-04T06:10:09;1.05;;;0.20;;
52642;SDS011;38531;53.296;6.614;2022-11-04T06:13:10;0.20;;;0.20;;
52642;SDS011;38531;53.296;6.614;2022-11-04T06:16:22;0.65;;;0.20;;
52642;SDS011;38531;53.296;6.614;2022-11-04T06:19:33;0.32;;;0.10;;
52642;SDS011;38531;53.296;6.614;2022-11-04T06:22:38;1.85;;;0.10;;
52642;SDS011;38531;53.296;6.614;2022-11-04T06:29:14;0.30;;;0.20;;
52642;SDS011;38531;53.296;6.614;2022-11-04T06:36:18;0.75;;;0.43;;
52642;SDS011;38531;53.296;6.614;2022-11-04T06:39:23;0.73;;;0.10;;
52642;SDS011;38531;53.296;6.614;2022-11-04T06:42:10;0.10;;;0.10;;
52642;SDS011;38531;53.296;6.614;2022-11-04T06:44:38;0.15;;;0.10;;
52642;SDS011;38531;53.296;6.614;2022-11-04T06:50:40;1.20;;;0.17;;
52642;SDS011;38531;53.296;6.614;2022-11-04T06:53:35;0.20;;;0.10;;
52642;SDS011;38531;53.296;6.614;2022-11-04T06:56:39;0.10;;;0.10;;
52642;SDS011;38531;53.296;6.614;2022-11-04T06:59:44;0.60;;;0.10;;
52642;SDS011;38531;53.296;6.614;2022-11-04T07:02:41;0.32;;;0.10;;
52642;SDS011;38531;53.296;6.614;2022-11-04T07:05:51;2.22;;;0.20;;
52642;SDS011;38531;53.296;6.614;2022-11-04T07:09:01;0.40;;;0.20;;
52642;SDS011;38531;53.296;6.614;2022-11-04T07:12:04;2.45;;;0.20;;
52642;SDS011;38531;53.296;6.614;2022-11-04T07:18:02;1.17;;;0.28;;
52642;SDS011;38531;53.296;6.614;2022-11-04T07:21:03;0.85;;;0.20;;
52642;SDS011;38531;53.296;6.614;2022-11-04T07:24:00;1.05;;;0.30;;
52642;SDS011;38531;53.296;6.614;2022-11-04T07:30:23;1.10;;;0.25;;
52642;SDS011;38531;53.296;6.614;2022-11-04T07:33:24;0.20;;;0.20;;
52642;SDS011;38531;53.296;6.614;2022-11-04T07:36:33;0.20;;;0.20;;
52642;SDS011;38531;53.296;6.614;2022-11-04T07:39:32;1.45;;;0.20;;
52642;SDS011;38531;53.296;6.614;2022-11-04T07:42:43;0.82;;;0.30;;
52642;SDS011;38531;53.296;6.614;2022-11-04T07:51:43;0.65;;;0.40;;
52642;SDS011;38531;53.296;6.614;2022-11-04T07:54:45;2.38;;;0.20;;
52642;SDS011;38531;53.296;6.614;2022-11-04T07:57:46;1.77;;;0.52;;
52642;SDS011;38531;53.296;6.614;2022-11-04T08:00:50;4.53;;;0.50;;
52642;SDS011;38531;53.296;6.614;2022-11-04T08:03:59;1.25;;;0.40;;
52642;SDS011;38531;53.296;6.614;2022-11-04T08:09:51;5.22;;;0.50;;
52642;SDS011;38531;53.296;6.614;2022-11-04T08:12:54;1.02;;;0.57;;
52642;SDS011;38531;53.296;6.614;2022-11-04T08:22:08;0.60;;;0.33;;
52642;SDS011;38531;53.296;6.614;2022-11-04T08:25:04;1.60;;;0.30;;
52642;SDS011;38531;53.296;6.614;2022-11-04T08:27:59;4.68;;;0.30;;
52642;SDS011;38531;53.296;6.614;2022-11-04T08:31:03;1.85;;;0.30;;
52642;SDS011;38531;53.296;6.614;2022-11-04T08:37:13;0.35;;;0.20;;
52642;SDS011;38531;53.296;6.614;2022-11-04T08:40:35;1.70;;;0.30;;
52642;SDS011;38531;53.296;6.614;2022-11-04T08:43:42;2.17;;;0.30;;
52642;SDS011;38531;53.296;6.614;2022-11-04T08:46:56;1.00;;;0.15;;
52642;SDS011;38531;53.296;6.614;2022-11-04T08:49:55;1.25;;;0.30;;
52642;SDS011;38531;53.296;6.614;2022-11-04T08:53:18;1.40;;;0.20;;
52642;SDS011;38531;53.296;6.614;2022-11-04T09:05:30;0.85;;;0.25;;
52642;SDS011;38531;53.296;6.614;2022-11-04T09:11:58;2.10;;;0.25;;
52642;SDS011;38531;53.296;6.614;2022-11-04T09:15:04;1.17;;;0.20;;
52642;SDS011;38531;53.296;6.614;2022-11-04T09:18:03;0.20;;;0.20;;
52642;SDS011;38531;53.296;6.614;2022-11-04T09:21:07;0.75;;;0.20;;
52642;SDS011;38531;53.296;6.614;2022-11-04T09:36:24;0.20;;;0.10;;
52642;SDS011;38531;53.296;6.614;2022-11-04T09:39:28;0.97;;;0.27;;
52642;SDS011;38531;53.296;6.614;2022-11-04T09:42:56;0.10;;;0.10;;
52642;SDS011;38531;53.296;6.614;2022-11-04T09:45:48;0.95;;;0.17;;
52642;SDS011;38531;53.296;6.614;2022-11-04T09:51:58;1.80;;;0.20;;
52642;SDS011;38531;53.296;6.614;2022-11-04T09:55:19;0.80;;;0.20;;
52642;SDS011;38531;53.296;6.614;2022-11-04T10:01:54;1.20;;;0.20;;
52642;SDS011;38531;53.296;6.614;2022-11-04T10:05:04;0.10;;;0.10;;
52642;SDS011;38531;53.296;6.614;2022-11-04T10:21:55;0.82;;;0.20;;
52642;SDS011;38531;53.296;6.614;2022-11-04T10:25:10;0.88;;;0.22;;
52642;SDS011;38531;53.296;6.614;2022-11-04T10:31:05;0.75;;;0.20;;
52642;SDS011;38531;53.296;6.614;2022-11-04T10:34:05;0.43;;;0.10;;
52642;SDS011;38531;53.296;6.614;2022-11-04T10:36:36;0.60;;;0.30;;
52642;SDS011;38531;53.296;6.614;2022-11-04T10:39:08;0.63;;;0.30;;
52642;SDS011;38531;53.296;6.614;2022-11-04T10:41:44;0.90;;;0.17;;
52642;SDS011;38531;53.296;6.614;2022-11-04T10:49:31;1.90;;;0.17;;
52642;SDS011;38531;53.296;6.614;2022-11-04T10:52:09;0.30;;;0.20;;
52642;SDS011;38531;53.296;6.614;2022-11-04T10:54:38;3.13;;;0.20;;
52642;SDS011;38531;53.296;6.614;2022-11-04T10:57:07;2.05;;;0.32;;
52642;SDS011;38531;53.296;6.614;2022-11-04T10:59:53;1.40;;;0.35;;
52642;SDS011;38531;53.296;6.614;2022-11-04T11:07:54;3.05;;;0.30;;
52642;SDS011;38531;53.296;6.614;2022-11-04T11:10:28;0.40;;;0.20;;
52642;SDS011;38531;53.296;6.614;2022-11-04T11:13:01;0.45;;;0.40;;
52642;SDS011;38531;53.296;6.614;2022-11-04T11:15:33;0.88;;;0.25;;
52642;SDS011;38531;53.296;6.614;2022-11-04T11:18:13;2.15;;;0.20;;
52642;SDS011;38531;53.296;6.614;2022-11-04T11:20:48;0.35;;;0.20;;
52642;SDS011;38531;53.296;6.614;2022-11-04T11:26:20;2.83;;;0.40;;
52642;SDS011;38531;53.296;6.614;2022-11-04T11:29:01;1.77;;;0.20;;
52642;SDS011;38531;53.296;6.614;2022-11-04T11:31:42;1.08;;;0.10;;
52642;SDS011;38531;53.296;6.614;2022-11-04T11:34:14;2.30;;;0.30;;
52642;SDS011;38531;53.296;6.614;2022-11-04T11:36:56;1.17;;;0.10;;
52642;SDS011;38531;53.296;6.614;2022-11-04T11:39:32;4.07;;;0.40;;
52642;SDS011;38531;53.296;6.614;2022-11-04T11:42:06;0.75;;;0.30;;
52642;SDS011;38531;53.296;6.614;2022-11-04T11:44:41;1.77;;;0.10;;
52642;SDS011;38531;53.296;6.614;2022-11-04T11:52:51;1.48;;;0.20;;
52642;SDS011;38531;53.296;6.614;2022-11-04T11:55:27;1.42;;;0.20;;
52642;SDS011;38531;53.296;6.614;2022-11-04T11:58:11;0.47;;;0.28;;
52642;SDS011;38531;53.296;6.614;2022-11-04T12:04:10;2.28;;;0.25;;
52642;SDS011;38531;53.296;6.614;2022-11-04T12:10:37;1.30;;;0.30;;
52642;SDS011;38531;53.296;6.614;2022-11-04T12:13:47;2.30;;;0.20;;
52642;SDS011;38531;53.296;6.614;2022-11-04T12:41:17;1.83;;;0.20;;
52642;SDS011;38531;53.296;6.614;2022-11-04T12:44:11;0.85;;;0.15;;
52642;SDS011;38531;53.296;6.614;2022-11-04T12:47:25;1.67;;;0.30;;
52642;SDS011;38531;53.296;6.614;2022-11-04T12:56:37;0.55;;;0.10;;
52642;SDS011;38531;53.296;6.614;2022-11-04T13:01:35;2.10;;;0.20;;
52642;SDS011;38531;53.296;6.614;2022-11-04T13:07:45;2.95;;;0.30;;
52642;SDS011;38531;53.296;6.614;2022-11-04T13:10:23;2.60;;;0.30;;
52642;SDS011;38531;53.296;6.614;2022-11-04T13:13:14;1.02;;;0.20;;
52642;SDS011;38531;53.296;6.614;2022-11-04T13:15:48;3.55;;;0.30;;
52642;SDS011;38531;53.296;6.614;2022-11-04T13:18:29;1.88;;;0.20;;
52642;SDS011;38531;53.296;6.614;2022-11-04T13:21:02;2.45;;;0.20;;
52642;SDS011;38531;53.296;6.614;2022-11-04T13:26:23;1.38;;;0.20;;
52642;SDS011;38531;53.296;6.614;2022-11-04T13:40:39;2.75;;;0.85;;
52642;SDS011;38531;53.296;6.614;2022-11-04T13:43:20;3.10;;;0.80;;
52642;SDS011;38531;53.296;6.614;2022-11-04T13:51:38;1.25;;;0.22;;
52642;SDS011;38531;53.296;6.614;2022-11-04T13:54:22;1.88;;;0.43;;
52642;SDS011;38531;53.296;6.614;2022-11-04T13:57:02;1.58;;;0.22;;
52642;SDS011;38531;53.296;6.614;2022-11-04T13:59:38;1.75;;;0.30;;
52642;SDS011;38531;53.296;6.614;2022-11-04T14:04:40;2.05;;;0.30;;
52642;SDS011;38531;53.296;6.614;2022-11-04T14:07:12;3.03;;;0.43;;
52642;SDS011;38531;53.296;6.614;2022-11-04T14:22:47;1.38;;;0.35;;
52642;SDS011;38531;53.296;6.614;2022-11-04T14:31:51;1.52;;;0.52;;
52642;SDS011;38531;53.296;6.614;2022-11-04T14:38:00;1.30;;;0.38;;
52642;SDS011;38531;53.296;6.614;2022-11-04T14:40:46;4.00;;;0.40;;
52642;SDS011;38531;53.296;6.614;2022-11-04T14:43:43;3.08;;;0.50;;
52642;SDS011;38531;53.296;6.614;2022-11-04T14:46:16;3.78;;;0.30;;
52642;SDS011;38531;53.296;6.614;2022-11-04T14:56:27;4.50;;;0.50;;
52642;SDS011;38531;53.296;6.614;2022-11-04T14:59:01;3.90;;;0.47;;
52642;SDS011;38531;53.296;6.614;2022-11-04T15:02:18;4.93;;;0.50;;
52642;SDS011;38531;53.296;6.614;2022-11-04T15:05:00;1.55;;;0.40;;
52642;SDS011;38531;53.296;6.614;2022-11-04T15:14:30;1.52;;;0.30;;
52642;SDS011;38531;53.296;6.614;2022-11-04T15:17:20;3.97;;;0.50;;
52642;SDS011;38531;53.296;6.614;2022-11-04T15:20:20;2.25;;;0.70;;
52642;SDS011;38531;53.296;6.614;2022-11-04T15:23:26;1.15;;;0.47;;
52642;SDS011;38531;53.296;6.614;2022-11-04T15:26:24;1.30;;;0.50;;
52642;SDS011;38531;53.296;6.614;2022-11-04T15:29:14;1.80;;;0.60;;
52642;SDS011;38531;53.296;6.614;2022-11-04T15:32:14;2.38;;;0.40;;
52642;SDS011;38531;53.296;6.614;2022-11-04T15:35:20;3.80;;;0.40;;
52642;SDS011;38531;53.296;6.614;2022-11-04T15:38:27;3.35;;;0.30;;
52642;SDS011;38531;53.296;6.614;2022-11-04T15:41:26;4.57;;;0.50;;
52642;SDS011;38531;53.296;6.614;2022-11-04T15:44:29;1.53;;;0.40;;
52642;SDS011;38531;53.296;6.614;2022-11-04T15:50:14;0.68;;;0.30;;
52642;SDS011;38531;53.296;6.614;2022-11-04T15:53:24;4.80;;;0.52;;
52642;SDS011;38531;53.296;6.614;2022-11-04T15:59:35;2.92;;;0.43;;
52642;SDS011;38531;53.296;6.614;2022-11-04T16:02:57;2.85;;;0.30;;
52642;SDS011;38531;53.296;6.614;2022-11-04T16:05:38;1.52;;;0.32;;
52642;SDS011;38531;53.296;6.614;2022-11-04T16:08:38;1.20;;;0.25;;
52642;SDS011;38531;53.296;6.614;2022-11-04T16:11:51;1.65;;;0.20;;
52642;SDS011;38531;53.296;6.614;2022-11-04T16:15:01;2.83;;;0.63;;
52642;SDS011;38531;53.296;6.614;2022-11-04T16:18:02;0.35;;;0.20;;
52642;SDS011;38531;53.296;6.614;2022-11-04T16:21:22;6.57;;;0.40;;
52642;SDS011;38531;53.296;6.614;2022-11-04T16:24:34;0.77;;;0.30;;
52642;SDS011;38531;53.296;6.614;2022-11-04T16:27:52;1.05;;;0.40;;
52642;SDS011;38531;53.296;6.614;2022-11-04T16:31:31;2.45;;;0.50;;
52642;SDS011;38531;53.296;6.614;2022-11-04T16:34:50;2.70;;;0.50;;
52642;SDS011;38531;53.296;6.614;2022-11-04T16:41:33;3.85;;;0.40;;
52642;SDS011;38531;53.296;6.614;2022-11-04T16:45:09;1.73;;;0.43;;
52642;SDS011;38531;53.296;6.614;2022-11-04T16:55:38;2.45;;;0.60;;
52642;SDS011;38531;53.296;6.614;2022-11-04T16:58:15;1.85;;;0.40;;
52642;SDS011;38531;53.296;6.614;2022-11-04T17:04:14;1.67;;;0.45;;
52642;SDS011;38531;53.296;6.614;2022-11-04T17:06:44;2.40;;;0.47;;
52642;SDS011;38531;53.296;6.614;2022-11-04T17:09:46;1.65;;;0.45;;
52642;SDS011;38531;53.296;6.614;2022-11-04T17:12:35;4.53;;;0.60;;
52642;SDS011;38531;53.296;6.614;2022-11-04T17:15:17;0.75;;;0.50;;
52642;SDS011;38531;53.296;6.614;2022-11-04T17:18:52;2.05;;;0.40;;
52642;SDS011;38531;53.296;6.614;2022-11-04T17:40:42;2.28;;;0.70;;
52642;SDS011;38531;53.296;6.614;2022-11-04T17:50:10;2.67;;;0.40;;
52642;SDS011;38531;53.296;6.614;2022-11-04T17:53:28;2.28;;;0.50;;
52642;SDS011;38531;53.296;6.614;2022-11-04T17:56:41;0.82;;;0.30;;
52642;SDS011;38531;53.296;6.614;2022-11-04T18:00:04;2.55;;;0.60;;
52642;SDS011;38531;53.296;6.614;2022-11-04T18:03:17;2.10;;;0.47;;
52642;SDS011;38531;53.296;6.614;2022-11-04T18:09:49;1.88;;;0.70;;
52642;SDS011;38531;53.296;6.614;2022-11-04T18:16:33;2.13;;;0.63;;
52642;SDS011;38531;53.296;6.614;2022-11-04T18:19:52;2.17;;;0.60;;
52642;SDS011;38531;53.296;6.614;2022-11-04T18:22:49;1.70;;;0.70;;
52642;SDS011;38531;53.296;6.614;2022-11-04T18:25:37;4.63;;;0.82;;
52642;SDS011;38531;53.296;6.614;2022-11-04T18:28:33;3.75;;;0.80;;
52642;SDS011;38531;53.296;6.614;2022-11-04T18:31:18;2.47;;;0.60;;
52642;SDS011;38531;53.296;6.614;2022-11-04T18:34:06;2.28;;;0.70;;
52642;SDS011;38531;53.296;6.614;2022-11-04T18:40:14;1.67;;;0.63;;
52642;SDS011;38531;53.296;6.614;2022-11-04T18:43:32;2.25;;;0.88;;
52642;SDS011;38531;53.296;6.614;2022-11-04T18:46:38;2.33;;;0.80;;
52642;SDS011;38531;53.296;6.614;2022-11-04T18:49:09;3.35;;;1.00;;
52642;SDS011;38531;53.296;6.614;2022-11-04T18:51:41;2.05;;;0.60;;
52642;SDS011;38531;53.296;6.614;2022-11-04T18:54:10;1.75;;;0.70;;
52642;SDS011;38531;53.296;6.614;2022-11-04T18:56:44;1.73;;;0.70;;
52642;SDS011;38531;53.296;6.614;2022-11-04T18:59:16;2.05;;;0.68;;
52642;SDS011;38531;53.296;6.614;2022-11-04T19:01:48;2.28;;;0.73;;
52642;SDS011;38531;53.296;6.614;2022-11-04T19:04:18;1.75;;;0.60;;
52642;SDS011;38531;53.296;6.614;2022-11-04T19:06:50;0.82;;;0.40;;
52642;SDS011;38531;53.296;6.614;2022-11-04T19:09:18;3.28;;;0.70;;
52642;SDS011;38531;53.296;6.614;2022-11-04T19:11:52;3.53;;;0.80;;
52642;SDS011;38531;53.296;6.614;2022-11-04T19:14:39;2.47;;;0.70;;
52642;SDS011;38531;53.296;6.614;2022-11-04T19:17:08;1.13;;;0.70;;
52642;SDS011;38531;53.296;6.614;2022-11-04T19:19:39;1.63;;;0.90;;
52642;SDS011;38531;53.296;6.614;2022-11-04T19:22:19;2.35;;;0.85;;
52642;SDS011;38531;53.296;6.614;2022-11-04T19:24:54;3.15;;;0.70;;
52642;SDS011;38531;53.296;6.614;2022-11-04T19:27:35;3.63;;;1.00;;
52642;SDS011;38531;53.296;6.614;2022-11-04T19:33:50;3.83;;;1.02;;
52642;SDS011;38531;53.296;6.614;2022-11-04T19:43:42;2.65;;;1.40;;
52642;SDS011;38531;53.296;6.614;2022-11-04T19:56:28;4.18;;;1.30;;
52642;SDS011;38531;53.296;6.614;2022-11-04T20:00:09;4.50;;;1.20;;
52642;SDS011;38531;53.296;6.614;2022-11-04T20:03:42;3.50;;;1.25;;
52642;SDS011;38531;53.296;6.614;2022-11-04T20:06:53;3.40;;;1.30;;
52642;SDS011;38531;53.296;6.614;2022-11-04T20:09:41;4.40;;;1.75;;
52642;SDS011;38531;53.296;6.614;2022-11-04T20:12:16;9.05;;;1.98;;
52642;SDS011;38531;53.296;6.614;2022-11-04T20:15:40;6.85;;;2.08;;
52642;SDS011;38531;53.296;6.614;2022-11-04T20:18:16;5.60;;;1.45;;
52642;SDS011;38531;53.296;6.614;2022-11-04T20:20:53;5.35;;;1.30;;
52642;SDS011;38531;53.296;6.614;2022-11-04T20:23:24;4.18;;;1.10;;
52642;SDS011;38531;53.296;6.614;2022-11-04T20:25:52;3.45;;;1.05;;
52642;SDS011;38531;53.296;6.614;2022-11-04T20:28:36;2.95;;;0.93;;
52642;SDS011;38531;53.296;6.614;2022-11-04T20:31:11;5.80;;;0.80;;
52642;SDS011;38531;53.296;6.614;2022-11-04T20:33:52;2.22;;;0.95;;
52642;SDS011;38531;53.296;6.614;2022-11-04T20:36:27;1.48;;;0.57;;
52642;SDS011;38531;53.296;6.614;2022-11-04T20:39:03;1.92;;;0.70;;
52642;SDS011;38531;53.296;6.614;2022-11-04T20:41:39;1.83;;;0.60;;
52642;SDS011;38531;53.296;6.614;2022-11-04T20:44:17;2.47;;;0.73;;
52642;SDS011;38531;53.296;6.614;2022-11-04T20:46:44;3.10;;;1.10;;
52642;SDS011;38531;53.296;6.614;2022-11-04T20:49:19;4.45;;;1.17;;
52642;SDS011;38531;53.296;6.614;2022-11-04T20:51:46;5.68;;;1.48;;
52642;SDS011;38531;53.296;6.614;2022-11-04T20:54:14;4.80;;;1.45;;
52642;SDS011;38531;53.296;6.614;2022-11-04T20:56:46;3.88;;;1.40;;
52642;SDS011;38531;53.296;6.614;2022-11-04T20:59:13;4.53;;;1.27;;
52642;SDS011;38531;53.296;6.614;2022-11-04T21:01:47;4.32;;;0.82;;
52642;SDS011;38531;53.296;6.614;2022-11-04T21:04:16;4.22;;;1.08;;
52642;SDS011;38531;53.296;6.614;2022-11-04T21:06:44;2.47;;;0.50;;
52642;SDS011;38531;53.296;6.614;2022-11-04T21:09:22;1.10;;;0.65;;
52642;SDS011;38531;53.296;6.614;2022-11-04T21:11:54;2.80;;;0.60;;
52642;SDS011;38531;53.296;6.614;2022-11-04T21:14:22;2.42;;;0.50;;
52642;SDS011;38531;53.296;6.614;2022-11-04T21:16:54;1.45;;;0.70;;
52642;SDS011;38531;53.296;6.614;2022-11-04T21:19:32;1.52;;;0.50;;
52642;SDS011;38531;53.296;6.614;2022-11-04T21:21:59;1.10;;;0.50;;
52642;SDS011;38531;53.296;6.614;2022-11-04T21:24:33;2.67;;;0.80;;
52642;SDS011;38531;53.296;6.614;2022-11-04T21:30:38;1.27;;;0.63;;
52642;SDS011;38531;53.296;6.614;2022-11-04T21:34:06;2.05;;;0.68;;
52642;SDS011;38531;53.296;6.614;2022-11-04T21:37:14;2.47;;;0.60;;
52642;SDS011;38531;53.296;6.614;2022-11-04T21:40:35;1.50;;;0.60;;
52642;SDS011;38531;53.296;6.614;2022-11-04T21:43:23;4.22;;;1.00;;
52642;SDS011;38531;53.296;6.614;2022-11-04T21:50:10;3.13;;;0.60;;
52642;SDS011;38531;53.296;6.614;2022-11-04T21:53:42;1.15;;;0.50;;
52642;SDS011;38531;53.296;6.614;2022-11-04T22:00:24;1.05;;;0.50;;
52642;SDS011;38531;53.296;6.614;2022-11-04T22:03:28;0.90;;;0.50;;
52642;SDS011;38531;53.296;6.614;2022-11-04T22:06:48;0.73;;;0.55;;
52642;SDS011;38531;53.296;6.614;2022-11-04T22:10:14;2.78;;;0.80;;
52642;SDS011;38531;53.296;6.614;2022-11-04T22:13:51;2.53;;;0.75;;
52642;SDS011;38531;53.296;6.614;2022-11-04T22:16:48;3.53;;;0.80;;
52642;SDS011;38531;53.296;6.614;2022-11-04T22:23:10;1.80;;;0.90;;
52642;SDS011;38531;53.296;6.614;2022-11-04T22:25:57;1.98;;;0.80;;
52642;SDS011;38531;53.296;6.614;2022-11-04T22:28:26;3.58;;;0.80;;
52642;SDS011;38531;53.296;6.614;2022-11-04T22:30:53;3.70;;;0.95;;
52642;SDS011;38531;53.296;6.614;2022-11-04T22:33:23;2.10;;;0.70;;
52642;SDS011;38531;53.296;6.614;2022-11-04T22:35:52;1.00;;;0.60;;
52642;SDS011;38531;53.296;6.614;2022-11-04T22:38:24;1.48;;;0.60;;
52642;SDS011;38531;53.296;6.614;2022-11-04T22:40:57;0.90;;;0.60;;
52642;SDS011;38531;53.296;6.614;2022-11-04T22:43:35;1.13;;;0.60;;
52642;SDS011;38531;53.296;6.614;2022-11-04T22:46:13;1.98;;;0.70;;
52642;SDS011;38531;53.296;6.614;2022-11-04T22:48:41;1.50;;;0.60;;
52642;SDS011;38531;53.296;6.614;2022-11-04T22:51:07;1.02;;;0.50;;
52642;SDS011;38531;53.296;6.614;2022-11-04T22:53:36;1.75;;;0.60;;
52642;SDS011;38531;53.296;6.614;2022-11-04T22:56:12;3.10;;;0.60;;
52642;SDS011;38531;53.296;6.614;2022-11-04T22:58:48;0.65;;;0.45;;
52642;SDS011;38531;53.296;6.614;2022-11-04T23:01:19;1.02;;;0.50;;
52642;SDS011;38531;53.296;6.614;2022-11-04T23:03:54;0.50;;;0.40;;
52642;SDS011;38531;53.296;6.614;2022-11-04T23:06:24;3.22;;;0.40;;
52642;SDS011;38531;53.296;6.614;2022-11-04T23:08:54;1.95;;;0.60;;
52642;SDS011;38531;53.296;6.614;2022-11-04T23:11:29;3.47;;;0.50;;
52642;SDS011;38531;53.296;6.614;2022-11-04T23:14:20;0.65;;;0.40;;
52642;SDS011;38531;53.296;6.614;2022-11-04T23:17:16;0.73;;;0.45;;
52642;SDS011;38531;53.296;6.614;2022-11-04T23:20:10;1.17;;;0.50;;
52642;SDS011;38531;53.296;6.614;2022-11-04T23:22:45;1.27;;;0.40;;
52642;SDS011;38531;53.296;6.614;2022-11-04T23:25:34;1.60;;;0.40;;
52642;SDS011;38531;53.296;6.614;2022-11-04T23:28:03;0.57;;;0.40;;
52642;SDS011;38531;53.296;6.614;2022-11-04T23:30:50;1.13;;;0.50;;
52642;SDS011;38531;53.296;6.614;2022-11-04T23:33:24;2.38;;;0.50;;
52642;SDS011;38531;53.296;6.614;2022-11-04T23:36:18;5.28;;;0.75;;
52642;SDS011;38531;53.296;6.614;2022-11-04T23:39:12;4.75;;;0.90;;
52642;SDS011;38531;53.296;6.614;2022-11-04T23:41:43;2.47;;;0.90;;
52642;SDS011;38531;53.296;6.614;2022-11-04T23:44:42;2.78;;;0.70;;
52642;SDS011;38531;53.296;6.614;2022-11-04T23:51:24;2.97;;;1.00;;
52642;SDS011;38531;53.296;6.614;2022-11-04T23:55:06;3.15;;;1.00;;
52642;SDS011;38531;53.296;6.614;2022-11-04T23:58:46;2.83;;;1.40;;
